createdAt,value
2023-05-10T00:03:00.738Z,14.8
2023-05-10T00:08:32.557Z,14.87
2023-05-10T00:14:03.988Z,14.58
2023-05-10T00:19:36.249Z,14.61
2023-05-10T00:25:07.374Z,14.63
2023-05-10T00:30:39.055Z,14.6
2023-05-10T00:36:11.002Z,14.62
2023-05-10T00:41:48.971Z,14.57
2023-05-10T00:47:20.669Z,14.64
2023-05-10T00:52:52.477Z,14.21
2023-05-10T00:58:24.182Z,14.17
2023-05-10T01:03:55.935Z,14.07
2023-05-10T01:20:31.010Z,13.9
2023-05-10T01:26:02.831Z,14.04
2023-05-10T01:31:34.491Z,14.07
2023-05-10T01:37:06.366Z,13.98
2023-05-10T01:42:42.766Z,14.0
2023-05-10T01:48:14.356Z,13.99
2023-05-10T01:53:45.773Z,14.12
2023-05-10T01:59:17.477Z,14.22
2023-05-10T02:04:49.364Z,14.1
2023-05-10T02:10:20.874Z,14.0
2023-05-10T02:15:52.649Z,14.25
2023-05-10T02:21:24.573Z,14.43
2023-05-10T02:26:56.212Z,14.61
2023-05-10T02:32:28.001Z,14.38
2023-05-10T02:37:59.541Z,14.32
2023-05-10T02:43:37.637Z,14.46
2023-05-10T02:49:09.591Z,14.51
2023-05-10T02:54:41.068Z,14.4
2023-05-10T03:00:12.803Z,14.38
2023-05-10T03:05:45.261Z,14.51
2023-05-10T03:11:16.274Z,14.28
2023-05-10T03:16:48.246Z,14.64
2023-05-10T03:22:19.721Z,14.67
2023-05-10T03:27:51.784Z,14.62
2023-05-10T03:33:23.176Z,14.84
2023-05-10T03:38:55.077Z,14.72
2023-05-10T03:44:30.931Z,14.51
2023-05-10T03:50:03.028Z,14.72
2023-05-10T03:55:34.448Z,14.64
2023-05-10T04:01:06.304Z,14.62
2023-05-10T04:06:38.515Z,14.61
2023-05-10T04:12:10.938Z,14.54
2023-05-10T04:17:41.497Z,14.73
2023-05-10T04:23:13.196Z,15.0
2023-05-10T04:28:45.044Z,14.88
2023-05-10T04:34:16.546Z,14.64
2023-05-10T04:39:48.201Z,14.52
2023-05-10T04:45:24.432Z,14.85
2023-05-10T04:50:56.152Z,14.78
2023-05-10T04:56:27.817Z,14.72
2023-05-10T05:01:59.983Z,14.61
2023-05-10T05:07:32.299Z,14.56
2023-05-10T05:13:03.354Z,14.59
2023-05-10T05:18:34.884Z,14.68
2023-05-10T05:24:06.680Z,14.68
2023-05-10T05:29:38.594Z,14.85
2023-05-10T05:35:10.132Z,15.01
2023-05-10T05:40:41.668Z,14.78
2023-05-10T05:46:17.833Z,14.96
2023-05-10T05:51:49.660Z,14.82
2023-05-10T05:57:21.205Z,15.07
2023-05-10T06:02:53.194Z,14.76
2023-05-10T06:08:24.697Z,14.89
2023-05-10T06:13:56.717Z,15.0
2023-05-10T06:19:28.391Z,14.99
2023-05-10T06:24:59.839Z,14.95
2023-05-10T06:30:31.571Z,14.76
2023-05-10T06:36:03.526Z,14.95
2023-05-10T06:41:35.042Z,15.01
2023-05-10T06:47:11.164Z,15.18
2023-05-10T06:58:14.529Z,15.13
2023-05-10T07:03:46.274Z,15.23
2023-05-10T07:09:18.220Z,15.51
2023-05-10T07:14:49.671Z,15.36
2023-05-10T07:20:21.450Z,15.31
2023-05-10T07:25:53.265Z,15.4
2023-05-10T07:31:24.938Z,15.31
2023-05-10T07:36:56.799Z,15.34
2023-05-10T07:42:28.364Z,15.56
2023-05-10T07:48:06.483Z,15.5
2023-05-10T07:53:38.375Z,15.71
2023-05-10T07:59:11.403Z,15.78
2023-05-10T08:04:41.729Z,15.78
2023-05-10T08:10:13.372Z,15.73
2023-05-10T08:15:45.122Z,15.8
2023-05-10T08:21:17.296Z,15.69
2023-05-10T08:26:48.717Z,15.73
2023-05-10T08:32:21.165Z,15.84
2023-05-10T08:37:51.995Z,15.7
2023-05-10T08:43:23.895Z,15.87
2023-05-10T08:49:00.084Z,15.95
2023-05-10T08:54:31.976Z,15.96
2023-05-10T09:00:03.849Z,16.18
2023-05-10T09:05:35.270Z,15.97
2023-05-10T09:11:07.158Z,16.15
2023-05-10T09:16:38.834Z,16.03
2023-05-10T09:22:10.142Z,16.12
2023-05-10T09:27:42.145Z,16.12
2023-05-10T09:33:13.543Z,16.37
2023-05-10T09:38:45.313Z,16.37
2023-05-10T09:44:17.468Z,16.17
2023-05-10T09:49:53.109Z,16.1
2023-05-10T09:55:24.894Z,16.07
2023-05-10T10:00:56.807Z,15.95
2023-05-10T10:06:30.324Z,16.02
2023-05-10T10:12:00.115Z,15.91
2023-05-10T10:17:32.037Z,15.97
2023-05-10T10:23:03.466Z,16.49
2023-05-10T10:28:35.163Z,16.47
2023-05-10T10:34:07.149Z,16.23
2023-05-10T10:39:38.901Z,16.09
2023-05-10T10:45:10.656Z,16.03
2023-05-10T10:50:46.718Z,15.99
2023-05-10T10:56:19.224Z,15.94
2023-05-10T11:01:49.914Z,16.08
2023-05-10T11:07:21.682Z,16.65
2023-05-10T11:12:53.378Z,16.49
2023-05-10T11:18:25.078Z,16.67
2023-05-10T11:23:57.061Z,16.87
2023-05-10T11:29:28.572Z,16.95
2023-05-10T11:35:00.248Z,17.03
2023-05-10T11:40:32.127Z,17.15
2023-05-10T11:46:03.848Z,17.04
2023-05-10T11:51:39.988Z,16.81
2023-05-10T11:57:11.532Z,16.63
2023-05-10T12:02:43.506Z,16.61
2023-05-10T12:08:14.987Z,16.54
2023-05-10T12:13:47.018Z,16.58
2023-05-10T12:19:18.419Z,16.4
2023-05-10T12:24:50.383Z,16.37
2023-05-10T12:30:22.088Z,16.66
2023-05-10T12:35:53.582Z,16.59
2023-05-10T12:41:25.480Z,16.53
2023-05-10T12:46:57.279Z,16.74
2023-05-10T12:52:33.642Z,16.87
2023-05-10T12:58:04.877Z,16.96
2023-05-10T13:03:36.801Z,16.9
2023-05-10T13:09:08.931Z,17.09
2023-05-10T13:14:40.002Z,16.99
2023-05-10T13:20:11.778Z,17.12
2023-05-10T13:25:43.766Z,17.08
2023-05-10T13:31:15.515Z,17.06
2023-05-10T13:36:47.100Z,17.02
2023-05-10T13:42:19.255Z,17.16
2023-05-10T13:47:50.431Z,17.07
2023-05-10T13:53:26.576Z,17.04
2023-05-10T13:58:58.192Z,17.06
2023-05-10T14:04:29.925Z,17.22
2023-05-10T14:10:01.677Z,17.2
2023-05-10T14:15:33.374Z,17.31
2023-05-10T14:21:05.059Z,17.32
2023-05-10T14:26:36.777Z,17.06
2023-05-10T14:32:08.605Z,17.31
2023-05-10T14:37:40.451Z,17.2
2023-05-10T14:43:12.224Z,17.41
2023-05-10T14:48:43.712Z,17.35
2023-05-10T14:54:19.853Z,17.38
2023-05-10T14:59:51.827Z,17.56
2023-05-10T15:05:23.506Z,17.49
2023-05-10T15:10:56.004Z,17.63
2023-05-10T15:16:26.924Z,17.72
2023-05-10T15:21:58.471Z,17.69
2023-05-10T15:27:30.388Z,17.71
2023-05-10T15:33:01.951Z,17.82
2023-05-10T15:38:33.650Z,17.97
2023-05-10T15:44:05.583Z,17.79
2023-05-10T15:49:37.117Z,17.67
2023-05-10T15:55:13.364Z,17.81
2023-05-10T16:00:45.182Z,17.61
2023-05-10T16:06:16.694Z,17.74
2023-05-10T16:11:48.628Z,18.02
2023-05-10T16:17:20.509Z,17.94
2023-05-10T16:22:52.558Z,18.11
2023-05-10T16:28:23.605Z,17.71
2023-05-10T16:33:55.321Z,17.53
2023-05-10T16:39:27.410Z,17.96
2023-05-10T16:44:59.008Z,17.6
2023-05-10T16:50:30.512Z,17.66
2023-05-10T16:56:08.627Z,17.72
2023-05-10T17:01:40.521Z,17.82
2023-05-10T17:07:12.413Z,17.6
2023-05-10T17:12:43.893Z,17.6
2023-05-10T17:18:15.866Z,17.59
2023-05-10T17:23:47.318Z,17.39
2023-05-10T17:29:18.982Z,17.29
2023-05-10T17:34:50.974Z,16.97
2023-05-10T17:40:23.274Z,17.0
2023-05-10T17:45:54.513Z,16.93
2023-05-10T17:51:26.328Z,17.01
2023-05-10T17:57:02.016Z,17.15
2023-05-10T18:02:34.064Z,17.03
2023-05-10T18:08:05.625Z,16.93
2023-05-10T18:13:37.354Z,16.76
2023-05-10T18:19:09.105Z,16.73
2023-05-10T18:24:41.235Z,16.64
2023-05-10T18:30:12.371Z,16.48
2023-05-10T18:35:44.224Z,16.26
2023-05-10T18:41:15.780Z,16.13
2023-05-10T18:46:47.753Z,16.04
2023-05-10T18:52:19.484Z,16.03
2023-05-10T18:57:55.400Z,15.98
2023-05-10T19:03:27.317Z,16.05
2023-05-10T19:08:58.919Z,16.09
2023-05-10T19:14:30.637Z,16.1
2023-05-10T19:20:02.338Z,15.94
2023-05-10T19:25:34.540Z,15.88
2023-05-10T19:31:05.720Z,15.79
2023-05-10T19:36:37.404Z,15.7
2023-05-10T19:42:09.199Z,15.66
2023-05-10T19:47:41.187Z,15.64
2023-05-10T19:53:12.746Z,15.54
2023-05-10T19:58:51.431Z,15.51
2023-05-10T20:04:22.454Z,15.45
2023-05-10T20:09:54.351Z,15.42
2023-05-10T20:15:25.904Z,15.36
2023-05-10T20:20:57.582Z,15.33
2023-05-10T20:26:29.313Z,15.22
2023-05-10T20:32:01.158Z,15.26
2023-05-10T20:37:33.242Z,15.14
2023-05-10T20:43:04.790Z,15.08
2023-05-10T20:48:36.485Z,15.03
2023-05-10T20:54:08.016Z,15.12
2023-05-10T20:59:44.352Z,15.11
2023-05-10T21:05:16.121Z,15.05
2023-05-10T21:10:47.804Z,14.95
2023-05-10T21:16:19.322Z,14.88
2023-05-10T21:21:51.585Z,14.75
2023-05-10T21:27:23.031Z,14.85
2023-05-10T21:32:54.709Z,14.74
2023-05-10T21:38:26.528Z,14.54
2023-05-10T21:43:58.470Z,14.53
2023-05-10T21:49:29.623Z,14.16
2023-05-10T21:55:01.655Z,14.35
2023-05-10T22:00:39.463Z,14.36
2023-05-10T22:06:11.185Z,14.44
2023-05-10T22:11:43.187Z,14.36
2023-05-10T22:17:14.745Z,14.43
2023-05-10T22:22:47.552Z,14.41
2023-05-10T22:28:18.399Z,14.43
2023-05-10T22:33:50.165Z,14.47
2023-05-10T22:39:21.539Z,14.51
2023-05-10T22:44:53.684Z,14.39
2023-05-10T22:50:25.464Z,14.44
2023-05-10T22:55:56.705Z,14.3
2023-05-10T23:01:32.866Z,14.31
2023-05-10T23:07:04.988Z,14.25
2023-05-10T23:12:36.428Z,14.27
2023-05-10T23:18:08.058Z,14.2
2023-05-10T23:23:39.719Z,14.1
2023-05-10T23:29:11.474Z,14.08
2023-05-10T23:34:43.371Z,14.03
2023-05-10T23:40:15.004Z,14.04
2023-05-10T23:45:46.720Z,14.03
2023-05-10T23:51:18.361Z,14.0
2023-05-10T23:56:50.329Z,13.96
